Time;durP1;ratioP1;P1;durP2;ratioP2;P2;SDS_P1;SDS_P2;PMS_P1;PMS_P2;Temp;Humidity;BMP_temperature;BMP_pressure;BME280_temperature;BME280_humidity;BME280_pressure;Samples;Min_cycle;Max_cycle;Signal;HPM_P1;HPM_P2
2022/05/29 00:01:50;;;;;;;15.88;5.38;;;;;;;17.93;80.68;98918.97;5030620;28;20029;-73
2022/05/29 00:04:16;;;;;;;11.52;5.57;;;;;;;17.84;79.69;98905.19;5031108;28;20025;-73
2022/05/29 00:06:45;;;;;;;11.73;5.35;;;;;;;17.77;80.40;98907.97;5030967;28;20091;-73
2022/05/29 00:09:15;;;;;;;13.48;4.32;;;;;;;17.69;80.92;98898.66;5031788;28;20064;-73
2022/05/29 00:11:40;;;;;;;14.25;5.57;;;;;;;17.66;80.36;98905.91;5031588;28;20083;-73
2022/05/29 00:14:06;;;;;;;10.90;4.55;;;;;;;17.64;80.44;98904.72;5031054;28;20033;-73
2022/05/29 00:16:32;;;;;;;13.00;4.95;;;;;;;17.77;79.79;98899.50;5012133;28;20064;-73
2022/05/29 00:18:58;;;;;;;12.57;4.53;;;;;;;17.63;79.39;98894.63;5030974;28;20071;-73
2022/05/29 00:21:24;;;;;;;17.35;5.68;;;;;;;17.64;79.19;98893.41;5006046;28;20037;-73
2022/05/29 00:23:50;;;;;;;9.15;4.72;;;;;;;17.70;79.28;98879.69;5013162;28;20393;-73
2022/05/29 00:26:20;;;;;;;14.50;5.30;;;;;;;17.71;79.50;98881.31;5011938;28;20085;-73
2022/05/29 00:28:46;;;;;;;9.20;4.57;;;;;;;17.79;79.24;98880.09;5011746;28;20034;-73
2022/05/29 00:31:13;;;;;;;13.55;5.70;;;;;;;17.64;79.28;98877.22;4994268;28;20029;-74
2022/05/29 00:33:40;;;;;;;12.13;4.80;;;;;;;17.58;78.99;98866.69;5013460;28;20025;-73
2022/05/29 00:36:12;;;;;;;12.07;4.43;;;;;;;17.49;78.60;98873.53;5029728;28;20049;-73
2022/05/29 00:38:40;;;;;;;12.27;5.28;;;;;;;17.43;78.58;98863.00;5031518;28;20025;-73
2022/05/29 00:41:27;;;;;;;11.88;3.70;;;;;;;17.37;78.07;98854.09;5044464;28;20029;-73
2022/05/29 00:44:08;;;;;;;13.90;4.47;;;;;;;17.17;78.79;98845.94;5050975;28;20052;-73
2022/05/29 00:46:34;;;;;;;17.58;5.15;;;;;;;17.12;78.82;98837.81;5051332;28;20045;-73
2022/05/29 00:49:04;;;;;;;14.23;3.47;;;;;;;17.18;79.21;98833.41;5051386;28;20028;-73
2022/05/29 00:51:30;;;;;;;11.23;3.80;;;;;;;17.30;79.10;98825.81;5036185;28;20029;-73
2022/05/29 00:53:56;;;;;;;16.20;4.40;;;;;;;17.37;78.14;98823.81;5031173;28;20029;-73
2022/05/29 00:56:22;;;;;;;11.50;5.03;;;;;;;17.51;77.86;98827.91;5030650;28;20025;-73
2022/05/29 00:58:47;;;;;;;19.15;4.13;;;;;;;17.50;78.31;98846.91;5032159;28;20036;-73
2022/05/29 01:01:13;;;;;;;10.85;4.70;;;;;;;17.37;78.76;98845.59;5031555;28;20116;-74
2022/05/29 01:03:39;;;;;;;12.43;4.22;;;;;;;17.15;79.55;98848.34;5030292;28;20033;-73
2022/05/29 01:06:04;;;;;;;12.55;3.95;;;;;;;17.00;80.39;98840.97;5026712;28;20041;-73
2022/05/29 01:08:34;;;;;;;14.38;4.82;;;;;;;16.83;79.78;98831.97;5013384;28;20030;-73
2022/05/29 01:11:21;;;;;;;14.55;3.60;;;;;;;16.95;79.31;98833.63;5031519;28;20036;-73
2022/05/29 01:14:23;;;;;;;8.75;4.63;;;;;;;17.19;78.31;98834.22;5031461;28;20399;-73
2022/05/29 01:16:57;;;;;;;13.40;3.45;;;;;;;17.31;77.26;98848.00;5031018;28;20397;-73
2022/05/29 01:19:50;;;;;;;14.30;4.95;;;;;;;17.49;76.44;98867.06;5030244;28;20033;-73
2022/05/29 01:22:26;;;;;;;9.48;4.75;;;;;;;17.60;75.82;98878.41;5031078;28;20457;-73
2022/05/29 01:25:25;;;;;;;13.10;3.92;;;;;;;17.59;75.75;98891.75;5030157;28;20017;-73
2022/05/29 01:28:19;;;;;;;14.75;4.70;;;;;;;17.60;76.66;98901.03;5033017;28;20037;-73
2022/05/29 01:30:55;;;;;;;13.95;4.18;;;;;;;17.34;77.00;98915.06;4997876;28;20153;-73
2022/05/29 01:33:40;;;;;;;19.45;6.00;;;;;;;17.19;77.70;98899.19;5030615;28;20594;-73
2022/05/29 01:36:15;;;;;;;13.85;4.10;;;;;;;17.01;78.36;98865.19;5015618;28;20014;-73
2022/05/29 01:38:44;;;;;;;8.50;4.03;;;;;;;17.26;79.39;98863.34;5034516;28;20029;-72
2022/05/29 01:41:18;;;;;;;13.07;4.00;;;;;;;17.46;80.88;98834.75;5014495;28;20444;-73
2022/05/29 01:44:03;;;;;;;15.40;5.63;;;;;;;17.59;81.35;98823.91;5002804;28;20038;-73
2022/05/29 01:46:34;;;;;;;18.10;6.38;;;;;;;17.50;82.13;98827.13;4996904;28;20549;-73
2022/05/29 01:49:21;;;;;;;17.02;5.50;;;;;;;16.98;85.01;98847.00;5018452;28;20114;-73
2022/05/29 01:52:11;;;;;;;15.60;7.25;;;;;;;17.00;86.21;98869.22;5034345;28;20018;-73
2022/05/29 01:54:50;;;;;;;25.42;7.40;;;;;;;17.10;86.25;98865.66;5016180;28;20495;-72
2022/05/29 01:57:33;;;;;;;13.50;6.20;;;;;;;17.16;86.21;98877.38;5034326;28;20034;-72
2022/05/29 02:00:11;;;;;;;16.95;6.68;;;;;;;16.95;86.67;98876.00;5034215;28;20026;-73
2022/05/29 02:02:45;;;;;;;16.25;6.65;;;;;;;16.93;87.33;98862.31;5033482;28;20526;-73
2022/05/29 02:05:37;;;;;;;12.88;6.68;;;;;;;17.06;86.82;98890.25;5031284;28;20025;-72
2022/05/29 02:08:14;;;;;;;16.02;7.22;;;;;;;16.93;86.82;98932.91;5013962;28;20041;-73
2022/05/29 02:10:50;;;;;;;11.93;5.95;;;;;;;16.98;86.06;98969.25;5030852;28;20033;-73
2022/05/29 02:13:37;;;;;;;12.65;5.90;;;;;;;16.93;85.48;98980.09;5033893;28;20053;-73
2022/05/29 02:16:26;;;;;;;11.25;5.38;;;;;;;16.84;84.57;98949.38;5011460;28;20528;-72
2022/05/29 02:19:10;;;;;;;15.50;4.47;;;;;;;17.10;82.50;98891.91;5013930;28;20029;-72
2022/05/29 02:22:10;;;;;;;15.82;4.63;;;;;;;17.31;82.66;98855.69;5014951;28;20048;-72
2022/05/29 02:24:44;;;;;;;21.52;5.80;;;;;;;17.22;84.21;98856.84;4998660;28;20042;-72
2022/05/29 02:27:25;;;;;;;18.02;5.75;;;;;;;17.25;84.79;98866.56;5013832;28;20473;-72
2022/05/29 02:29:55;;;;;;;16.05;5.65;;;;;;;17.25;85.27;98889.16;5005953;28;20029;-72
2022/05/29 02:32:39;;;;;;;14.50;5.57;;;;;;;17.24;86.85;98907.31;5053567;28;20105;-72
2022/05/29 02:35:19;;;;;;;21.73;6.65;;;;;;;17.30;87.06;98902.91;5053656;28;20025;-72
2022/05/29 02:37:48;;;;;;;17.05;7.00;;;;;;;17.46;85.67;98911.06;5036070;28;20029;-72
2022/05/29 02:40:51;;;;;;;28.98;6.55;;;;;;;17.52;84.92;98911.50;5032780;28;20036;-73
2022/05/29 02:43:28;;;;;;;10.77;5.28;;;;;;;17.13;86.89;98924.19;5021562;28;20121;-72
2022/05/29 02:46:15;;;;;;;12.80;4.88;;;;;;;17.11;86.87;98933.06;5013260;28;20492;-73
2022/05/29 02:48:50;;;;;;;14.77;5.20;;;;;;;16.80;87.84;98949.34;5013454;28;20463;-72
2022/05/29 02:51:35;;;;;;;14.90;5.75;;;;;;;16.90;89.11;98961.94;5028544;28;20385;-73
2022/05/29 02:54:01;;;;;;;12.57;5.03;;;;;;;16.94;87.43;98962.78;5033202;28;20040;-73
2022/05/29 02:56:27;;;;;;;12.15;5.22;;;;;;;17.01;85.50;98924.50;5018093;28;20029;-72
2022/05/29 02:58:57;;;;;;;7.88;3.97;;;;;;;17.25;84.24;98875.03;5033112;28;20070;-73
2022/05/29 03:01:51;;;;;;;15.98;5.07;;;;;;;17.52;81.98;98869.09;5032763;28;20045;-72
2022/05/29 03:04:16;;;;;;;14.15;5.03;;;;;;;17.74;81.89;98867.19;5034366;28;20032;-72
2022/05/29 03:07:01;;;;;;;16.50;4.35;;;;;;;17.81;82.27;98878.50;5037721;28;20029;-73
2022/05/29 03:09:26;;;;;;;25.20;4.57;;;;;;;17.77;82.26;98869.22;5023732;28;20037;-72
2022/05/29 03:11:52;;;;;;;10.73;4.68;;;;;;;17.79;81.62;98869.63;5032912;28;20033;-73
2022/05/29 03:14:27;;;;;;;12.35;5.05;;;;;;;17.48;83.15;98866.25;5032834;28;20513;-72
2022/05/29 03:16:55;;;;;;;18.83;4.97;;;;;;;17.25;84.73;98839.13;5032707;28;20025;-73
2022/05/29 03:19:27;;;;;;;18.33;4.50;;;;;;;17.47;84.47;98832.75;5045917;28;20025;-72
2022/05/29 03:22:31;;;;;;;14.25;5.28;;;;;;;17.42;80.66;98830.28;5032220;28;20033;-73
2022/05/29 03:25:08;;;;;;;13.40;4.45;;;;;;;17.38;81.71;98844.44;5013770;28;20037;-73
2022/05/29 03:27:44;;;;;;;11.85;5.32;;;;;;;17.06;81.46;98836.59;5032208;28;20056;-73
2022/05/29 03:30:18;;;;;;;8.50;4.80;;;;;;;17.10;82.97;98851.53;5024087;28;20450;-72
2022/05/29 03:32:46;;;;;;;12.10;5.18;;;;;;;17.16;83.24;98852.78;5009214;28;20045;-72
2022/05/29 03:35:27;;;;;;;11.93;4.82;;;;;;;17.06;83.52;98847.88;5032048;28;20029;-73
2022/05/29 03:37:53;;;;;;;8.43;4.47;;;;;;;16.79;84.02;98837.59;5032124;28;20029;-73
2022/05/29 03:40:20;;;;;;;12.20;5.20;;;;;;;16.62;84.26;98824.16;5018806;28;20106;-73
2022/05/29 03:42:46;;;;;;;7.93;4.40;;;;;;;16.89;84.53;98821.13;5048955;28;20040;-72
2022/05/29 03:45:12;;;;;;;17.40;5.18;;;;;;;17.16;82.96;98812.41;5051918;28;20065;-72
2022/05/29 03:47:38;;;;;;;9.88;3.97;;;;;;;17.33;80.40;98794.75;5051810;28;20067;-73
2022/05/29 03:50:09;;;;;;;10.10;4.95;;;;;;;17.28;81.36;98799.97;5046816;28;20036;-73
2022/05/29 03:52:35;;;;;;;14.05;5.18;;;;;;;17.40;80.99;98810.91;5034537;28;20116;-73
2022/05/29 03:55:01;;;;;;;11.43;5.00;;;;;;;17.61;81.28;98817.84;5031608;28;20151;-73
2022/05/29 03:57:27;;;;;;;11.55;3.85;;;;;;;17.69;80.24;98816.66;5031996;28;20032;-73
2022/05/29 03:59:53;;;;;;;9.43;5.43;;;;;;;17.85;80.26;98815.47;5031812;28;20464;-72
2022/05/29 04:02:19;;;;;;;8.70;4.38;;;;;;;17.98;80.20;98818.75;5031669;28;20033;-73
2022/05/29 04:04:45;;;;;;;20.27;7.00;;;;;;;17.83;81.54;98822.34;5034646;28;20034;-72
2022/05/29 04:07:11;;;;;;;14.93;5.90;;;;;;;17.39;84.00;98831.91;5031873;28;20040;-73
2022/05/29 04:12:21;;;;;;;14.63;6.40;;;;;;;16.94;84.47;98826.38;5031839;28;20574;-73
2022/05/29 04:14:47;;;;;;;9.32;4.82;;;;;;;17.01;83.80;98820.00;5013249;28;20033;-73
2022/05/29 04:17:17;;;;;;;11.27;5.80;;;;;;;17.22;83.18;98828.59;5030644;28;20142;-73
2022/05/29 04:19:44;;;;;;;9.02;4.68;;;;;;;17.53;82.58;98836.78;5030675;28;20068;-73
2022/05/29 04:22:14;;;;;;;12.35;4.78;;;;;;;17.71;82.10;98838.88;5032310;28;20500;-73
2022/05/29 04:24:40;;;;;;;13.80;5.35;;;;;;;17.63;82.70;98846.53;5031711;28;20033;-73
2022/05/29 04:27:11;;;;;;;10.95;5.53;;;;;;;17.53;83.95;98843.28;5030522;28;20036;-73
2022/05/29 04:29:37;;;;;;;15.82;6.97;;;;;;;17.60;83.76;98845.31;5013925;28;20034;-73
2022/05/29 04:34:48;;;;;;;11.77;6.38;;;;;;;18.20;83.13;98839.41;5030899;28;20064;-73
2022/05/29 04:37:14;;;;;;;16.05;6.05;;;;;;;18.37;82.01;98818.81;5030425;28;20041;-73
2022/05/29 04:39:39;;;;;;;10.88;5.05;;;;;;;18.47;82.25;98822.06;5031535;28;20032;-73
2022/05/29 04:42:06;;;;;;;19.55;6.35;;;;;;;18.49;82.17;98833.78;5029003;28;20455;-73
2022/05/29 04:44:32;;;;;;;16.92;5.72;;;;;;;18.44;83.12;98820.84;5017327;28;20068;-73
2022/05/29 04:46:59;;;;;;;18.95;6.53;;;;;;;18.59;81.83;98829.31;5031559;28;20025;-73
2022/05/29 04:49:24;;;;;;;15.70;6.45;;;;;;;18.66;81.68;98843.50;5028166;28;20103;-72
2022/05/29 04:51:50;;;;;;;14.45;7.28;;;;;;;18.55;81.21;98845.53;5030542;28;20464;-77
2022/05/29 04:54:15;;;;;;;16.17;6.95;;;;;;;18.47;80.89;98841.88;5018584;28;20139;-72
2022/05/29 04:56:41;;;;;;;18.92;7.25;;;;;;;18.67;81.03;98837.41;5051173;28;20503;-76
2022/05/29 04:59:06;;;;;;;15.07;8.07;;;;;;;18.82;80.32;98843.03;5037965;28;20091;-75
2022/05/29 05:01:32;;;;;;;13.70;7.10;;;;;;;18.87;80.98;98837.00;5033180;28;20036;-76
2022/05/29 05:03:57;;;;;;;31.02;7.68;;;;;;;18.97;80.58;98829.69;5019682;28;20156;-78
2022/05/29 05:06:23;;;;;;;16.17;7.25;;;;;;;19.06;79.75;98841.44;5035593;28;20495;-80
2022/05/29 05:08:48;;;;;;;15.23;6.22;;;;;;;19.21;79.56;98841.38;5017534;28;20052;-82
2022/05/29 05:11:14;;;;;;;12.98;6.47;;;;;;;19.13;79.87;98825.63;5034771;28;20049;-78
2022/05/29 05:13:39;;;;;;;14.63;6.18;;;;;;;19.03;78.57;98822.41;5017157;28;20041;-78
2022/05/29 05:16:06;;;;;;;19.90;7.03;;;;;;;18.90;80.61;98804.22;5017436;28;20025;-78
2022/05/29 05:18:31;;;;;;;23.00;7.45;;;;;;;19.01;81.50;98788.03;5014732;28;20092;-78
2022/05/29 05:20:57;;;;;;;19.67;6.30;;;;;;;19.17;80.66;98773.38;5017044;28;20033;-80
2022/05/29 05:23:23;;;;;;;16.52;7.15;;;;;;;19.22;80.12;98784.28;5012901;28;20449;-80
2022/05/29 05:25:48;;;;;;;12.80;6.15;;;;;;;19.19;79.64;98819.13;5038710;28;20124;-79
2022/05/29 05:28:14;;;;;;;15.75;7.25;;;;;;;19.25;79.16;98824.38;5034967;28;20034;-76
2022/05/29 05:30:39;;;;;;;18.50;7.70;;;;;;;19.39;79.68;98824.31;5016889;28;20040;-78
2022/05/29 05:33:06;;;;;;;17.90;8.43;;;;;;;19.39;79.87;98827.16;5016560;28;20411;-78
2022/05/29 05:35:32;;;;;;;18.23;8.52;;;;;;;19.29;79.28;98797.63;5016861;28;20025;-77
2022/05/29 05:37:57;;;;;;;16.02;7.82;;;;;;;19.51;79.51;98803.22;5034010;28;20530;-76
2022/05/29 05:40:23;;;;;;;21.42;7.38;;;;;;;19.66;79.24;98795.41;5017377;28;20032;-75
2022/05/29 05:42:48;;;;;;;23.27;8.82;;;;;;;19.72;78.42;98802.28;5023904;28;20052;-75
2022/05/29 05:45:14;;;;;;;35.17;8.55;;;;;;;19.67;78.84;98828.25;5052636;28;20061;-75
2022/05/29 05:47:41;;;;;;;13.80;7.32;;;;;;;19.69;78.21;98853.38;5047708;28;20042;-73
2022/05/29 05:50:09;;;;;;;16.67;7.10;;;;;;;19.70;78.44;98861.47;5016991;28;20457;-83
2022/05/29 05:52:36;;;;;;;13.00;8.05;;;;;;;19.80;78.85;98833.47;5014185;28;20029;-73
2022/05/29 05:55:06;;;;;;;14.13;7.18;;;;;;;19.72;78.74;98805.13;5023408;28;20404;-78
2022/05/29 05:57:32;;;;;;;15.55;7.32;;;;;;;19.74;79.98;98790.53;5027729;28;20037;-73
2022/05/29 05:59:58;;;;;;;16.02;7.47;;;;;;;19.76;79.41;98797.41;5033856;28;20108;-71
2022/05/29 06:02:23;;;;;;;18.20;8.07;;;;;;;19.81;80.48;98798.19;5032634;28;20475;-73
2022/05/29 06:04:50;;;;;;;12.95;7.40;;;;;;;19.87;79.60;98811.53;5032549;28;20648;-76
2022/05/29 06:07:15;;;;;;;19.15;8.63;;;;;;;19.95;79.84;98802.97;5015713;28;20076;-77
2022/05/29 06:09:41;;;;;;;15.60;8.18;;;;;;;20.03;80.94;98811.06;5016790;28;20079;-79
2022/05/29 06:12:07;;;;;;;15.10;7.32;;;;;;;19.89;79.61;98782.72;5032365;28;20053;-78
2022/05/29 06:14:34;;;;;;;19.52;7.38;;;;;;;19.96;80.46;98802.59;5017412;28;20124;-82
2022/05/29 06:17:00;;;;;;;15.98;7.10;;;;;;;20.02;78.92;98817.94;5018215;28;20029;-76
2022/05/29 06:19:26;;;;;;;18.38;7.28;;;;;;;20.09;79.42;98821.97;5036924;28;20044;-74
2022/05/29 06:21:51;;;;;;;18.60;7.55;;;;;;;20.10;79.16;98823.56;5034859;28;20022;-77
2022/05/29 06:24:17;;;;;;;17.85;8.13;;;;;;;20.12;78.68;98815.44;5036729;28;20026;-78
2022/05/29 06:26:42;;;;;;;20.90;8.82;;;;;;;20.05;80.50;98813.47;5016772;28;20407;-75
2022/05/29 06:29:08;;;;;;;22.65;9.18;;;;;;;20.12;79.16;98821.94;5017951;28;20029;-75
2022/05/29 06:31:33;;;;;;;16.13;7.72;;;;;;;20.11;78.98;98822.34;5038939;28;20033;-75
2022/05/29 06:33:59;;;;;;;13.50;7.47;;;;;;;20.24;79.19;98839.72;5028024;28;20021;-76
2022/05/29 06:36:25;;;;;;;44.35;10.05;;;;;;;20.09;79.03;98856.84;5016253;28;20084;-82
2022/05/29 06:38:53;;;;;;;26.95;7.97;;;;;;;20.11;78.53;98862.09;5015302;28;20396;-75
2022/05/29 06:41:20;;;;;;;15.95;8.57;;;;;;;20.12;77.63;98853.16;5029731;28;20155;-74
2022/05/29 06:43:48;;;;;;;22.95;8.70;;;;;;;20.13;77.04;98836.94;5052588;28;20424;-83
2022/05/29 06:46:14;;;;;;;12.93;7.45;;;;;;;20.12;77.20;98823.97;5028824;28;20063;-77
2022/05/29 06:48:40;;;;;;;15.68;8.48;;;;;;;20.17;77.54;98840.56;5031827;28;20091;-74
2022/05/29 06:51:12;;;;;;;14.27;7.13;;;;;;;20.23;76.05;98840.94;5012573;28;20028;-75
2022/05/29 06:53:38;;;;;;;14.40;7.53;;;;;;;20.30;76.73;98847.38;5022563;28;20061;-72
2022/05/29 06:56:05;;;;;;;17.15;7.40;;;;;;;20.43;74.52;98839.13;5025421;28;20144;-70
2022/05/29 06:58:30;;;;;;;13.45;7.18;;;;;;;20.46;76.42;98838.31;5012205;28;20550;-70
2022/05/29 07:09:08;;;;;;;11.15;7.65;;;;;;;20.63;76.04;98841.41;5032632;28;20048;-72
2022/05/29 07:11:39;;;;;;;15.32;8.70;;;;;;;20.71;77.84;98836.47;5033165;28;20017;-72
2022/05/29 07:14:06;;;;;;;18.23;8.95;;;;;;;20.86;76.15;98832.28;5002312;28;20044;-73
2022/05/29 07:16:33;;;;;;;19.48;8.10;;;;;;;20.81;73.88;98815.72;5018746;28;20028;-72
2022/05/29 07:18:59;;;;;;;21.58;9.30;;;;;;;20.93;75.33;98814.38;5012402;28;20022;-73
2022/05/29 07:21:25;;;;;;;14.45;7.65;;;;;;;21.00;73.99;98814.28;5027259;28;20029;-72
2022/05/29 07:23:51;;;;;;;16.45;8.15;;;;;;;21.00;72.43;98814.28;5032285;28;20022;-72
2022/05/29 07:26:17;;;;;;;19.27;7.53;;;;;;;21.02;71.76;98811.84;5030802;28;20548;-72
2022/05/29 07:28:43;;;;;;;17.77;7.75;;;;;;;21.24;73.42;98803.06;5014460;28;20486;-72
2022/05/29 07:31:09;;;;;;;15.20;7.45;;;;;;;21.33;72.54;98794.03;5038119;28;20021;-72
2022/05/29 07:33:35;;;;;;;17.60;8.32;;;;;;;21.38;72.83;98806.97;5028635;28;20030;-72
2022/05/29 07:36:00;;;;;;;18.92;8.95;;;;;;;21.40;73.46;98804.50;5011139;28;20476;-71
2022/05/29 07:38:29;;;;;;;18.52;8.80;;;;;;;21.52;72.63;98814.53;5031476;28;20026;-72
2022/05/29 07:40:54;;;;;;;19.98;9.10;;;;;;;21.62;72.67;98818.44;5044619;28;20084;-74
2022/05/29 07:43:22;;;;;;;17.33;9.40;;;;;;;21.76;74.00;98817.50;5039485;28;20045;-72
2022/05/29 07:45:53;;;;;;;14.65;8.52;;;;;;;21.52;72.60;98814.53;5032156;28;20030;-72
2022/05/29 07:48:23;;;;;;;17.23;10.18;;;;;;;21.59;73.04;98814.41;5026722;28;20393;-73
2022/05/29 07:50:49;;;;;;;23.15;9.25;;;;;;;21.55;74.25;98807.97;5013977;28;20022;-72
2022/05/29 07:53:15;;;;;;;18.20;9.55;;;;;;;21.57;73.31;98797.78;5013444;28;20613;-72
2022/05/29 07:55:43;;;;;;;25.50;10.35;;;;;;;21.66;73.06;98797.28;5031971;28;20024;-76
2022/05/29 07:58:09;;;;;;;25.83;10.63;;;;;;;21.84;73.23;98796.22;5031813;28;20513;-72
2022/05/29 08:00:35;;;;;;;19.30;10.57;;;;;;;21.73;72.69;98794.34;5014080;28;20024;-78
2022/05/29 08:03:01;;;;;;;19.45;9.85;;;;;;;21.81;72.83;98797.09;5030726;28;20021;-72
2022/05/29 08:05:31;;;;;;;19.40;8.75;;;;;;;21.57;71.26;98789.25;5013882;28;20025;-72
2022/05/29 08:07:57;;;;;;;24.75;8.93;;;;;;;21.63;72.35;98778.19;5030566;28;20470;-74
2022/05/29 08:10:26;;;;;;;21.60;9.95;;;;;;;22.10;72.46;98786.06;5029658;28;20029;-72
2022/05/29 08:12:52;;;;;;;21.27;8.32;;;;;;;22.54;69.14;98779.69;5030957;28;20435;-72
2022/05/29 08:15:18;;;;;;;22.35;7.30;;;;;;;22.83;69.51;98785.69;5031770;28;20021;-74
2022/05/29 08:17:44;;;;;;;16.50;6.55;;;;;;;23.02;67.52;98774.72;5036560;28;20021;-72
2022/05/29 08:20:13;;;;;;;17.42;7.25;;;;;;;23.06;65.41;98780.38;5032676;28;20030;-73
2022/05/29 08:22:39;;;;;;;11.98;5.90;;;;;;;23.18;67.48;98774.00;5011970;28;21915;-72
2022/05/29 08:30:41;;;;;;;18.17;5.88;;;;;;;23.57;65.96;98774.47;5026285;28;20032;-74
2022/05/29 08:33:14;;;;;;;15.90;6.20;;;;;;;23.73;63.43;98773.72;5010895;28;20469;-73
2022/05/29 08:35:46;;;;;;;26.55;6.82;;;;;;;23.92;62.81;98772.03;5027090;28;20108;-73
2022/05/29 08:38:14;;;;;;;19.02;6.13;;;;;;;24.07;62.28;98794.56;5013554;28;20044;-74
2022/05/29 08:40:46;;;;;;;17.13;6.85;;;;;;;23.95;60.58;98790.31;5012970;28;20124;-73
2022/05/29 08:43:18;;;;;;;14.13;6.45;;;;;;;24.05;62.13;98788.50;5009466;28;20154;-72
2022/05/29 08:45:49;;;;;;;13.35;7.13;;;;;;;24.18;62.26;98774.31;5028997;28;20052;-73
2022/05/29 08:48:20;;;;;;;22.55;5.97;;;;;;;24.47;62.39;98787.91;5029094;28;20044;-75
2022/05/29 08:51:07;;;;;;;14.35;5.90;;;;;;;24.43;60.28;98770.84;5013377;28;20453;-76
2022/05/29 08:53:53;;;;;;;13.25;6.53;;;;;;;24.53;59.17;98772.63;5015892;28;20131;-76
2022/05/29 08:56:29;;;;;;;17.55;6.28;;;;;;;24.54;57.45;98777.09;5025765;28;20528;-77
2022/05/29 08:59:13;;;;;;;14.30;6.03;;;;;;;24.42;59.27;98766.38;5023783;28;20029;-78
2022/05/29 09:02:11;;;;;;;12.32;5.60;;;;;;;24.23;58.53;98757.44;5031071;28;20022;-78
2022/05/29 09:04:45;;;;;;;11.77;6.05;;;;;;;24.28;58.79;98763.91;5028804;28;20026;-76
2022/05/29 09:07:17;;;;;;;15.32;6.07;;;;;;;24.28;61.00;98755.31;5030411;28;20468;-76
2022/05/29 09:09:50;;;;;;;15.30;6.82;;;;;;;24.54;58.51;98747.69;5031161;28;20100;-80
2022/05/29 09:12:23;;;;;;;9.43;5.03;;;;;;;24.70;58.71;98752.56;5031347;28;20052;-79
2022/05/29 09:15:08;;;;;;;12.40;6.93;;;;;;;24.91;57.86;98745.50;5028368;28;20018;-75
2022/05/29 09:17:42;;;;;;;16.35;6.97;;;;;;;24.94;57.78;98738.88;5030055;28;20036;-76
2022/05/29 09:20:23;;;;;;;15.95;6.45;;;;;;;24.87;57.86;98741.16;5013124;28;20492;-75
2022/05/29 09:22:49;;;;;;;18.67;7.55;;;;;;;24.93;58.47;98733.63;5011875;28;20113;-73
2022/05/29 09:25:30;;;;;;;17.33;6.63;;;;;;;25.01;58.98;98740.75;5011683;28;20442;-75
2022/05/29 09:28:03;;;;;;;18.30;6.90;;;;;;;24.98;56.73;98741.66;5028798;28;20026;-73
2022/05/29 09:30:29;;;;;;;13.57;7.20;;;;;;;25.06;57.67;98734.47;5030242;28;20025;-75
2022/05/29 09:33:00;;;;;;;19.05;6.63;;;;;;;25.36;57.46;98737.28;5031027;28;20025;-75
2022/05/29 09:35:45;;;;;;;13.20;7.40;;;;;;;25.32;55.79;98731.66;5029358;28;20120;-76
2022/05/29 09:38:48;;;;;;;13.05;7.00;;;;;;;25.33;55.81;98721.81;5027304;28;20036;-76
2022/05/29 09:41:26;;;;;;;21.63;7.00;;;;;;;25.47;55.20;98716.94;5012712;28;20052;-74
2022/05/29 09:44:13;;;;;;;11.65;6.43;;;;;;;25.38;53.91;98715.53;5030229;28;20527;-74
2022/05/29 09:46:48;;;;;;;17.95;6.55;;;;;;;25.43;54.86;98693.34;5000084;28;20029;-74
2022/05/29 09:49:42;;;;;;;14.60;6.10;;;;;;;25.36;55.41;98715.19;5033436;28;20513;-77
2022/05/29 09:52:12;;;;;;;16.92;7.70;;;;;;;24.76;57.05;98695.66;5022940;28;20079;-75
2022/05/29 09:54:46;;;;;;;18.73;8.18;;;;;;;24.27;59.12;98677.38;5011477;28;20430;-75
2022/05/29 09:57:20;;;;;;;18.20;7.25;;;;;;;24.54;58.82;98677.06;5033809;28;20037;-74
2022/05/29 09:59:49;;;;;;;19.63;6.85;;;;;;;25.16;58.61;98663.91;5033674;28;20021;-81
2022/05/29 10:02:28;;;;;;;12.48;7.57;;;;;;;25.39;55.69;98656.22;5022262;28;20032;-78
2022/05/29 10:04:59;;;;;;;40.85;35.45;;;;;;;25.48;56.12;98659.22;5034030;28;20100;-76
2022/05/29 10:07:47;;;;;;;18.10;7.03;;;;;;;25.97;53.16;98665.06;5033694;28;20095;-77
2022/05/29 10:10:26;;;;;;;16.48;6.47;;;;;;;25.98;54.49;98649.50;5034615;28;20037;-83
2022/05/29 10:12:54;;;;;;;17.33;6.82;;;;;;;25.57;54.82;98632.78;5034179;28;20033;-76
2022/05/29 10:15:26;;;;;;;19.00;7.65;;;;;;;25.82;53.87;98642.63;5032515;28;20116;-75
2022/05/29 10:17:53;;;;;;;19.50;6.50;;;;;;;25.82;54.19;98654.06;5032176;28;20064;-78
2022/05/29 10:20:50;;;;;;;16.55;5.70;;;;;;;25.78;54.63;98641.94;5030573;28;20026;-82
2022/05/29 10:23:35;;;;;;;10.90;5.70;;;;;;;25.79;54.67;98630.03;5015661;28;20479;-74
2022/05/29 10:26:34;;;;;;;10.90;5.93;;;;;;;25.83;55.42;98632.78;5033530;28;20021;-74
2022/05/29 10:29:02;;;;;;;12.80;5.80;;;;;;;25.73;55.69;98625.34;5006488;28;20057;-74
2022/05/29 10:31:36;;;;;;;13.95;5.95;;;;;;;25.64;53.53;98621.13;5032509;28;20513;-73
2022/05/29 10:34:08;;;;;;;18.65;5.30;;;;;;;25.81;54.34;98611.59;4996608;28;20038;-74
2022/05/29 10:36:36;;;;;;;16.50;5.78;;;;;;;25.99;53.52;98586.00;5032096;28;20029;-73
2022/05/29 10:39:17;;;;;;;14.82;5.30;;;;;;;26.23;53.71;98577.00;5033022;28;20087;-73
2022/05/29 10:41:44;;;;;;;16.00;5.18;;;;;;;26.44;54.70;98586.91;5031627;28;20032;-74
2022/05/29 10:44:33;;;;;;;15.13;5.93;;;;;;;26.61;53.27;98581.78;5032417;28;20107;-74
2022/05/29 10:47:05;;;;;;;22.50;6.53;;;;;;;26.71;52.20;98585.50;5015153;28;20061;-74
2022/05/29 10:49:34;;;;;;;12.02;5.28;;;;;;;26.85;52.14;98577.59;5032075;28;20458;-74
2022/05/29 10:52:11;;;;;;;8.40;4.82;;;;;;;26.97;52.02;98570.19;5015082;28;20033;-73
2022/05/29 10:54:52;;;;;;;15.80;5.88;;;;;;;27.10;50.90;98556.56;5032422;28;20053;-74
2022/05/29 10:57:42;;;;;;;11.43;5.60;;;;;;;27.14;51.12;98550.66;5022435;28;20040;-74
2022/05/29 11:00:26;;;;;;;;;;;;;;;27.17;51.19;98536.19;5032326;28;20465;-74
2022/05/29 11:03:36;;;;;;;15.43;5.22;;;;;;;27.06;50.65;98538.69;5032246;28;19917;-74
2022/05/29 11:06:36;;;;;;;15.75;5.43;;;;;;;26.78;50.28;98536.44;5031957;28;20418;-74
2022/05/29 11:09:38;;;;;;;10.27;5.90;;;;;;;27.07;50.85;98519.41;5032733;28;20098;-74
2022/05/29 11:12:06;;;;;;;18.52;6.18;;;;;;;27.21;51.11;98521.69;5031709;28;20025;-74
2022/05/29 11:14:48;;;;;;;13.85;5.55;;;;;;;27.39;49.30;98523.81;5032238;28;20036;-74
2022/05/29 11:17:31;;;;;;;16.92;6.07;;;;;;;27.60;49.76;98513.53;5002205;28;20057;-73
2022/05/29 11:20:18;;;;;;;10.68;5.57;;;;;;;27.78;48.27;98509.09;5032370;28;20057;-73
2022/05/29 11:23:00;;;;;;;15.40;5.97;;;;;;;27.79;48.50;98496.31;5001213;28;20044;-73
2022/05/29 11:25:36;;;;;;;17.42;6.20;;;;;;;27.85;49.36;98502.25;5014501;28;20108;-73
2022/05/29 11:28:33;;;;;;;18.92;6.07;;;;;;;27.82;49.25;98506.06;5032792;28;20033;-79
2022/05/29 11:31:05;;;;;;;17.33;7.07;;;;;;;27.76;48.03;98494.41;5009722;28;20419;-76
2022/05/29 11:33:49;;;;;;;17.38;7.65;;;;;;;27.54;47.71;98492.47;5026280;28;20425;-77
2022/05/29 11:36:26;;;;;;;30.60;14.93;;;;;;;27.61;48.53;98486.41;5014589;28;20024;-77
2022/05/29 11:39:13;;;;;;;21.02;9.40;;;;;;;27.88;48.39;98475.41;5030900;28;20124;-75
2022/05/29 11:41:51;;;;;;;23.08;12.68;;;;;;;27.75;49.24;98470.63;5022432;28;20419;-77
2022/05/29 11:44:22;;;;;;;54.72;22.70;;;;;;;27.83;48.90;98471.09;5031438;28;20041;-77
2022/05/29 11:52:30;;;;;;;107.97;46.70;;;;;;;28.29;46.78;98427.16;5032069;28;20074;-76
2022/05/29 11:55:06;;;;;;;30.17;15.18;;;;;;;28.32;46.47;98421.75;5027227;28;20018;-77
2022/05/29 11:57:52;;;;;;;26.90;11.68;;;;;;;28.46;46.53;98423.94;5027183;28;20021;-76
2022/05/29 12:00:44;;;;;;;14.02;7.35;;;;;;;28.40;46.95;98423.00;5024050;28;20471;-77
2022/05/29 12:03:13;;;;;;;19.75;8.27;;;;;;;28.49;47.39;98405.72;5012086;28;20041;-76
2022/05/29 12:05:57;;;;;;;16.35;6.63;;;;;;;28.56;45.91;98393.06;5031214;28;20040;-77
2022/05/29 12:09:07;;;;;;;21.92;8.02;;;;;;;28.67;45.82;98401.97;5016126;28;20055;-76
2022/05/29 12:11:53;;;;;;;41.60;17.17;;;;;;;28.71;45.82;98398.94;4926593;29;20042;-76
2022/05/29 12:14:27;;;;;;;27.08;10.95;;;;;;;28.59;46.89;98390.03;5009894;28;20060;-75
2022/05/29 12:17:44;;;;;;;52.30;22.48;;;;;;;28.65;47.25;98386.47;5030496;28;20108;-75